createdAt,value
2022-10-21T00:01:40.628Z,10.39
2022-10-21T00:04:42.193Z,10.40
2022-10-21T00:07:43.688Z,10.39
2022-10-21T00:10:45.310Z,10.32
2022-10-21T00:13:46.800Z,10.23
2022-10-21T00:16:48.377Z,10.14
2022-10-21T00:19:49.909Z,10.06
2022-10-21T00:22:51.482Z,9.98
2022-10-21T00:25:57.002Z,9.93
2022-10-21T00:28:58.541Z,9.93
2022-10-21T00:32:00.057Z,9.89
2022-10-21T00:35:01.663Z,9.88
2022-10-21T00:38:03.208Z,9.86
2022-10-21T00:41:04.904Z,9.82
2022-10-21T00:44:08.831Z,9.78
2022-10-21T00:47:16.000Z,9.70
2022-10-21T00:50:23.172Z,9.68
2022-10-21T00:53:24.790Z,9.69
2022-10-21T00:56:27.244Z,9.58
2022-10-21T00:59:29.804Z,9.50
2022-10-21T01:02:31.339Z,9.45
2022-10-21T01:05:32.865Z,9.43
2022-10-21T01:08:34.784Z,9.43
2022-10-21T01:11:40.868Z,9.42
2022-10-21T01:14:46.852Z,9.33
2022-10-21T01:17:48.898Z,9.24
2022-10-21T01:20:53.461Z,9.27
2022-10-21T01:27:13.288Z,9.31
2022-10-21T01:30:14.771Z,9.21
2022-10-21T01:33:25.597Z,9.15
2022-10-21T01:36:29.234Z,9.21
2022-10-21T01:39:33.798Z,9.13
2022-10-21T01:42:35.591Z,9.04
2022-10-21T01:45:47.847Z,8.99
2022-10-21T01:48:51.313Z,8.92
2022-10-21T01:51:52.888Z,8.95
2022-10-21T01:54:55.449Z,8.98
2022-10-21T01:57:58.780Z,8.95
2022-10-21T02:01:00.884Z,9.01
2022-10-21T02:04:02.456Z,9.04
2022-10-21T02:07:04.141Z,9.12
2022-10-21T02:10:05.875Z,9.23
2022-10-21T02:13:08.794Z,9.34
2022-10-21T02:16:11.345Z,9.42
2022-10-21T02:19:16.670Z,9.46
2022-10-21T02:22:19.685Z,9.40
2022-10-21T02:25:21.876Z,9.34
2022-10-21T02:28:24.656Z,9.24
2022-10-21T02:31:44.798Z,9.11
2022-10-21T02:35:15.700Z,8.95
2022-10-21T02:38:20.481Z,8.86
2022-10-21T02:41:22.433Z,8.76
2022-10-21T02:44:23.951Z,8.71
2022-10-21T02:47:25.713Z,8.69
2022-10-21T02:50:27.291Z,8.61
2022-10-21T02:53:28.817Z,8.60
2022-10-21T02:59:31.796Z,8.53
2022-10-21T03:02:33.329Z,8.42
2022-10-21T03:05:34.883Z,8.49
2022-10-21T03:08:36.400Z,8.59
2022-10-21T03:11:37.957Z,8.62
2022-10-21T03:14:39.489Z,8.61
2022-10-21T03:17:41.365Z,8.57
2022-10-21T03:20:43.118Z,8.56
2022-10-21T03:23:44.656Z,8.52
2022-10-21T03:26:46.226Z,8.50
2022-10-21T03:29:47.731Z,8.46
2022-10-21T03:32:49.241Z,8.34
2022-10-21T03:35:50.774Z,8.18
2022-10-21T03:38:52.462Z,8.16
2022-10-21T03:41:53.984Z,8.14
2022-10-21T03:44:55.486Z,8.13
2022-10-21T03:47:57.077Z,8.14
2022-10-21T03:50:59.068Z,8.14
2022-10-21T03:54:00.565Z,8.10
2022-10-21T03:57:02.060Z,8.02
2022-10-21T04:00:04.191Z,8.00
2022-10-21T04:03:13.898Z,7.98
2022-10-21T04:06:15.514Z,7.96
2022-10-21T04:09:17.126Z,7.94
2022-10-21T04:12:18.664Z,7.95
2022-10-21T04:15:20.178Z,7.95
2022-10-21T04:18:21.700Z,8.02
2022-10-21T04:24:24.935Z,8.15
2022-10-21T04:27:26.400Z,8.19
2022-10-21T04:30:27.873Z,8.27
2022-10-21T04:33:29.375Z,8.29
2022-10-21T04:36:30.869Z,8.32
2022-10-21T04:39:32.392Z,8.39
2022-10-21T04:42:33.913Z,8.36
2022-10-21T04:45:38.111Z,8.37
2022-10-21T04:48:39.980Z,8.39
2022-10-21T04:51:41.608Z,8.30
2022-10-21T04:54:43.095Z,8.33
2022-10-21T04:57:44.576Z,8.35
2022-10-21T05:00:46.586Z,8.31
2022-10-21T05:03:48.168Z,8.23
2022-10-21T05:06:49.649Z,8.18
2022-10-21T05:09:51.124Z,8.17
2022-10-21T05:12:53.201Z,8.21
2022-10-21T05:16:01.718Z,8.23
2022-10-21T05:19:03.199Z,8.21
2022-10-21T05:22:04.708Z,8.17
2022-10-21T05:25:06.389Z,8.13
2022-10-21T05:28:07.867Z,8.07
2022-10-21T05:31:09.387Z,8.01
2022-10-21T05:34:10.893Z,8.05
2022-10-21T05:37:12.369Z,8.11
2022-10-21T05:40:13.918Z,8.11
2022-10-21T05:43:15.421Z,8.02
2022-10-21T05:46:16.976Z,8.05
2022-10-21T05:49:18.453Z,8.03
2022-10-21T05:52:19.934Z,7.96
2022-10-21T05:55:21.435Z,7.89
2022-10-21T05:58:23.603Z,7.92
2022-10-21T06:01:25.165Z,7.92
2022-10-21T06:04:26.842Z,7.95
2022-10-21T06:07:28.332Z,7.88
2022-10-21T06:10:29.961Z,7.80
2022-10-21T06:13:31.772Z,7.80
2022-10-21T06:16:35.427Z,7.75
2022-10-21T06:19:37.044Z,7.72
2022-10-21T06:22:38.617Z,7.76
2022-10-21T06:25:40.149Z,7.80
2022-10-21T06:28:42.861Z,7.84
2022-10-21T06:31:44.820Z,7.87
2022-10-21T06:34:46.390Z,7.89
2022-10-21T06:37:47.956Z,7.93
2022-10-21T06:40:49.489Z,8.01
2022-10-21T06:43:51.006Z,8.06
2022-10-21T06:46:54.168Z,8.10
2022-10-21T06:49:56.297Z,8.11
2022-10-21T06:52:58.057Z,8.03
2022-10-21T06:56:04.609Z,7.89
2022-10-21T06:59:06.299Z,7.84
2022-10-21T07:02:09.121Z,7.82
2022-10-21T07:05:10.764Z,7.82
2022-10-21T07:08:12.885Z,7.89
2022-10-21T07:11:14.902Z,7.92
2022-10-21T07:14:16.454Z,7.91
2022-10-21T07:17:18.022Z,7.99
2022-10-21T07:20:19.543Z,8.03
2022-10-21T07:23:21.268Z,8.09
2022-10-21T07:26:23.096Z,8.13
2022-10-21T07:29:24.681Z,8.16
2022-10-21T07:32:26.248Z,8.17
2022-10-21T07:35:27.933Z,8.25
2022-10-21T07:38:29.492Z,8.34
2022-10-21T07:41:38.591Z,8.44
2022-10-21T07:44:40.093Z,8.55
2022-10-21T07:47:41.843Z,8.59
2022-10-21T07:50:43.513Z,8.59
2022-10-21T07:53:45.475Z,8.59
2022-10-21T07:56:50.685Z,8.61
2022-10-21T07:59:52.250Z,8.63
2022-10-21T08:02:54.914Z,8.63
2022-10-21T08:05:56.529Z,8.62
2022-10-21T08:08:58.292Z,8.63
2022-10-21T08:11:59.922Z,8.70
2022-10-21T08:15:01.429Z,8.81
2022-10-21T08:18:02.968Z,8.88
2022-10-21T08:21:04.874Z,8.93
2022-10-21T08:24:06.690Z,8.96
2022-10-21T08:27:08.284Z,9.00
2022-10-21T08:30:10.041Z,9.02
2022-10-21T08:33:12.129Z,9.05
2022-10-21T08:36:15.118Z,9.12
2022-10-21T08:39:16.650Z,9.15
2022-10-21T08:42:18.237Z,9.19
2022-10-21T08:45:22.855Z,9.25
2022-10-21T08:48:25.585Z,9.26
2022-10-21T08:51:28.239Z,9.27
2022-10-21T08:54:42.189Z,9.26
2022-10-21T08:57:43.791Z,9.23
2022-10-21T09:00:45.441Z,9.23
2022-10-21T09:03:56.304Z,9.25
2022-10-21T09:06:59.568Z,9.28
2022-10-21T09:10:01.866Z,9.33
2022-10-21T09:13:09.389Z,9.34
2022-10-21T09:16:16.155Z,9.29
2022-10-21T09:19:20.974Z,9.28
2022-10-21T09:22:34.920Z,9.32
2022-10-21T09:25:40.081Z,9.30
2022-10-21T09:28:41.600Z,9.31
2022-10-21T09:31:43.815Z,9.40
2022-10-21T09:34:47.768Z,9.41
2022-10-21T09:37:57.690Z,9.58
2022-10-21T09:41:03.254Z,9.64
2022-10-21T09:44:05.045Z,9.56
2022-10-21T09:47:18.898Z,9.53
2022-10-21T09:50:20.546Z,9.52
2022-10-21T09:53:26.359Z,9.61
2022-10-21T09:56:29.514Z,9.53
2022-10-21T09:59:33.503Z,9.58
2022-10-21T10:02:39.412Z,9.58
2022-10-21T10:05:47.249Z,9.56
2022-10-21T10:08:48.821Z,9.56
2022-10-21T10:11:53.824Z,9.65
2022-10-21T10:14:58.485Z,9.72
2022-10-21T10:18:00.089Z,9.69
2022-10-21T10:21:12.150Z,9.73
2022-10-21T10:24:15.909Z,9.77
2022-10-21T10:27:19.450Z,9.77
2022-10-21T10:30:21.658Z,9.84
2022-10-21T10:33:32.886Z,9.91
2022-10-21T10:36:35.813Z,9.99
2022-10-21T10:39:37.534Z,10.00
2022-10-21T10:42:42.116Z,10.10
2022-10-21T10:46:02.461Z,10.23
2022-10-21T10:49:16.236Z,10.29
2022-10-21T10:52:22.970Z,10.32
2022-10-21T10:55:24.454Z,10.37
2022-10-21T10:58:28.212Z,10.43
2022-10-21T11:01:31.624Z,10.48
2022-10-21T11:04:39.239Z,10.47
2022-10-21T11:07:50.924Z,10.53
2022-10-21T11:10:53.552Z,10.60
2022-10-21T11:13:55.154Z,10.66
2022-10-21T11:17:16.757Z,10.74
2022-10-21T11:20:18.257Z,10.82
2022-10-21T11:23:39.245Z,10.83
2022-10-21T11:26:40.738Z,10.79
2022-10-21T11:30:00.805Z,10.78
2022-10-21T11:33:37.651Z,10.78
2022-10-21T11:36:45.150Z,10.77
2022-10-21T11:40:02.053Z,10.83
2022-10-21T11:43:22.610Z,10.81
2022-10-21T11:46:24.096Z,10.89
2022-10-21T11:49:29.201Z,10.91
2022-10-21T11:52:45.847Z,10.92
2022-10-21T11:55:47.486Z,10.98
2022-10-21T11:59:07.936Z,10.99
2022-10-21T12:02:21.744Z,11.00
2022-10-21T12:05:29.120Z,11.06
2022-10-21T12:08:45.251Z,11.10
2022-10-21T12:11:50.058Z,11.09
2022-10-21T12:15:02.610Z,11.17
2022-10-21T12:18:04.837Z,11.19
2022-10-21T12:21:06.421Z,11.20
2022-10-21T12:24:10.724Z,11.34
2022-10-21T12:27:30.958Z,11.40
2022-10-21T12:30:41.119Z,11.43
2022-10-21T12:33:43.686Z,11.38
2022-10-21T12:36:46.778Z,11.30
2022-10-21T12:39:49.651Z,11.26
2022-10-21T12:42:58.621Z,11.22
2022-10-21T12:46:07.382Z,11.15
2022-10-21T12:49:27.591Z,11.17
2022-10-21T12:52:29.170Z,11.24
2022-10-21T12:55:35.954Z,11.19
2022-10-21T12:58:41.571Z,11.18
2022-10-21T13:01:45.188Z,11.12
2022-10-21T13:04:48.019Z,11.08
2022-10-21T13:08:09.501Z,11.09
2022-10-21T13:11:11.037Z,11.07
2022-10-21T13:14:12.601Z,11.09
2022-10-21T13:17:23.292Z,11.10
2022-10-21T13:20:24.837Z,11.19
2022-10-21T13:23:31.700Z,11.20
2022-10-21T13:26:33.216Z,11.14
2022-10-21T13:29:37.712Z,11.12
2022-10-21T13:32:39.567Z,11.10
2022-10-21T13:35:41.432Z,11.13
2022-10-21T13:38:46.933Z,11.20
2022-10-21T13:41:55.316Z,11.21
2022-10-21T13:44:57.926Z,11.29
2022-10-21T13:48:00.533Z,11.26
2022-10-21T13:51:05.902Z,11.25
2022-10-21T13:54:09.914Z,11.28
2022-10-21T13:57:16.767Z,11.18
2022-10-21T14:00:31.497Z,11.12
2022-10-21T14:03:33.061Z,11.08
2022-10-21T14:06:40.200Z,11.06
2022-10-21T14:09:59.930Z,11.04
2022-10-21T14:13:01.439Z,11.06
2022-10-21T14:16:03.689Z,11.01
2022-10-21T14:19:06.730Z,11.02
2022-10-21T14:22:09.943Z,11.04
2022-10-21T14:25:15.758Z,11.09
2022-10-21T14:28:18.912Z,11.09
2022-10-21T14:31:20.619Z,11.12
2022-10-21T14:34:23.215Z,11.14
2022-10-21T14:37:24.793Z,11.25
2022-10-21T14:40:32.011Z,11.33
2022-10-21T14:43:43.057Z,11.40
2022-10-21T14:46:48.355Z,11.43
2022-10-21T14:49:50.845Z,11.44
2022-10-21T14:52:52.477Z,11.43
2022-10-21T14:55:57.785Z,11.41
2022-10-21T14:58:59.788Z,11.41
2022-10-21T15:02:01.539Z,11.42
2022-10-21T15:05:23.336Z,11.50
2022-10-21T15:08:26.519Z,11.52
2022-10-21T15:11:29.058Z,11.56
2022-10-21T15:14:32.002Z,11.55
2022-10-21T15:17:33.572Z,11.54
2022-10-21T15:20:35.186Z,11.51
2022-10-21T15:23:39.813Z,11.49
2022-10-21T15:26:41.387Z,11.50
2022-10-21T15:29:43.721Z,11.49
2022-10-21T15:32:45.724Z,11.52
2022-10-21T15:35:59.178Z,11.54
2022-10-21T15:39:04.203Z,11.54
2022-10-21T15:42:09.970Z,11.56
2022-10-21T15:45:15.137Z,11.60
2022-10-21T15:48:16.770Z,11.66
2022-10-21T15:51:18.369Z,11.70
2022-10-21T15:54:20.655Z,11.73
2022-10-21T15:57:22.654Z,11.72
2022-10-21T16:00:24.231Z,11.77
2022-10-21T16:03:25.780Z,11.74
2022-10-21T16:06:27.297Z,11.71
2022-10-21T16:09:29.069Z,11.71
2022-10-21T16:12:31.271Z,11.70
2022-10-21T16:15:33.286Z,11.74
2022-10-21T16:18:34.910Z,11.74
2022-10-21T16:21:36.435Z,11.73
2022-10-21T16:24:37.926Z,11.68
2022-10-21T16:27:56.712Z,11.74
2022-10-21T16:30:59.652Z,11.73
2022-10-21T16:34:01.229Z,11.76
2022-10-21T16:37:02.800Z,11.78
2022-10-21T16:40:12.584Z,11.75
2022-10-21T16:43:16.180Z,11.76
2022-10-21T16:46:27.806Z,11.77
2022-10-21T16:49:29.290Z,11.74
2022-10-21T16:52:32.170Z,11.74
2022-10-21T16:55:33.745Z,11.77
2022-10-21T16:58:35.269Z,11.77
2022-10-21T17:01:37.126Z,11.79
2022-10-21T17:04:38.635Z,11.81
2022-10-21T17:07:40.378Z,11.82
2022-10-21T17:10:42.915Z,11.87
2022-10-21T17:13:44.688Z,11.89
2022-10-21T17:16:46.377Z,11.93
2022-10-21T17:19:47.888Z,11.91
2022-10-21T17:22:49.445Z,11.89
2022-10-21T17:25:50.921Z,11.86
2022-10-21T17:28:52.669Z,11.82
2022-10-21T17:31:54.202Z,11.79
2022-10-21T17:34:55.771Z,11.82
2022-10-21T17:37:57.255Z,11.84
2022-10-21T17:40:58.918Z,11.89
2022-10-21T17:44:01.896Z,11.97
2022-10-21T17:47:03.517Z,12.02
2022-10-21T17:50:05.234Z,12.09
2022-10-21T17:53:06.810Z,12.13
2022-10-21T17:56:08.434Z,12.15
2022-10-21T17:59:10.079Z,12.19
2022-10-21T18:02:11.623Z,12.22
2022-10-21T18:05:13.183Z,12.23
2022-10-21T18:08:14.681Z,12.23
2022-10-21T18:11:17.010Z,12.26
2022-10-21T18:14:18.667Z,12.30
2022-10-21T18:17:20.250Z,12.31
2022-10-21T18:20:21.781Z,12.32
2022-10-21T18:23:23.424Z,12.33
2022-10-21T18:26:26.122Z,12.32
2022-10-21T18:29:27.670Z,12.32
2022-10-21T18:32:29.169Z,12.33
2022-10-21T18:35:30.856Z,12.32
2022-10-21T18:38:32.375Z,12.35
2022-10-21T18:41:34.188Z,12.37
2022-10-21T18:44:35.989Z,12.38
2022-10-21T18:47:38.301Z,12.37
2022-10-21T18:50:40.158Z,12.38
2022-10-21T18:53:41.845Z,12.40
2022-10-21T18:56:44.846Z,12.39
2022-10-21T18:59:46.420Z,12.37
2022-10-21T19:02:47.973Z,12.39
2022-10-21T19:05:49.533Z,12.39
2022-10-21T19:08:51.176Z,12.39
2022-10-21T19:11:53.262Z,12.38
2022-10-21T19:14:55.437Z,12.42
2022-10-21T19:17:57.063Z,12.46
2022-10-21T19:20:58.621Z,12.46
2022-10-21T19:24:02.298Z,12.41
2022-10-21T19:27:04.030Z,12.41
2022-10-21T19:30:05.810Z,12.40
2022-10-21T19:33:07.340Z,12.39
2022-10-21T19:36:09.861Z,12.36
2022-10-21T19:39:11.493Z,12.35
2022-10-21T19:42:13.146Z,12.33
2022-10-21T19:45:17.974Z,12.32
2022-10-21T19:48:20.006Z,12.33
2022-10-21T19:51:22.642Z,12.28
2022-10-21T19:54:24.234Z,12.26
2022-10-21T19:57:25.789Z,12.25
2022-10-21T20:00:27.356Z,12.25
2022-10-21T20:03:28.977Z,12.21
2022-10-21T20:06:31.623Z,12.19
2022-10-21T20:09:35.120Z,12.21
2022-10-21T20:12:39.915Z,12.21
2022-10-21T20:15:47.174Z,12.22
2022-10-21T20:18:49.169Z,12.23
2022-10-21T20:21:50.896Z,12.22
2022-10-21T20:24:52.646Z,12.21
2022-10-21T20:27:54.197Z,12.19
2022-10-21T20:30:56.046Z,12.22
2022-10-21T20:33:57.582Z,12.23
2022-10-21T20:36:59.158Z,12.25
2022-10-21T20:40:00.653Z,12.26
2022-10-21T20:43:02.353Z,12.29
2022-10-21T20:46:04.354Z,12.30
2022-10-21T20:49:06.354Z,12.30
2022-10-21T20:52:07.896Z,12.30
2022-10-21T20:55:09.724Z,12.29
2022-10-21T20:58:11.278Z,12.29
2022-10-21T21:01:14.493Z,12.32
2022-10-21T21:04:16.771Z,12.37
2022-10-21T21:07:18.304Z,12.37
2022-10-21T21:10:19.862Z,12.39
2022-10-21T21:13:21.417Z,12.41
2022-10-21T21:16:23.182Z,12.43
2022-10-21T21:19:25.878Z,12.46
2022-10-21T21:22:27.408Z,12.47
2022-10-21T21:25:28.976Z,12.46
2022-10-21T21:28:33.990Z,12.42
2022-10-21T21:31:37.570Z,12.41
2022-10-21T21:34:39.126Z,12.44
2022-10-21T21:37:40.655Z,12.48
2022-10-21T21:40:44.188Z,12.47
2022-10-21T21:43:46.334Z,12.47
2022-10-21T21:46:47.885Z,12.46
2022-10-21T21:49:49.637Z,12.39
2022-10-21T21:52:51.168Z,12.36
2022-10-21T21:55:52.732Z,12.30
2022-10-21T21:58:58.192Z,12.26
2022-10-21T22:02:01.809Z,12.28
2022-10-21T22:05:03.417Z,12.28
2022-10-21T22:08:05.100Z,12.30
2022-10-21T22:11:17.167Z,12.25
2022-10-21T22:14:18.719Z,12.23
2022-10-21T22:17:20.277Z,12.22
2022-10-21T22:20:21.953Z,12.21
2022-10-21T22:23:23.469Z,12.22
2022-10-21T22:26:26.850Z,12.25
2022-10-21T22:29:28.616Z,12.27
2022-10-21T22:32:30.147Z,12.30
2022-10-21T22:35:31.667Z,12.35
2022-10-21T22:38:33.473Z,12.39
2022-10-21T22:41:35.012Z,12.37
2022-10-21T22:44:36.545Z,12.32
2022-10-21T22:47:38.295Z,12.32
2022-10-21T22:50:40.084Z,12.35
2022-10-21T22:53:41.731Z,12.35
2022-10-21T22:56:43.269Z,12.35
2022-10-21T22:59:49.382Z,12.35
2022-10-21T23:02:53.776Z,12.36
2022-10-21T23:05:55.497Z,12.32
2022-10-21T23:08:57.061Z,12.35
2022-10-21T23:11:58.780Z,12.29
2022-10-21T23:15:00.295Z,12.25
2022-10-21T23:18:01.997Z,12.25
2022-10-21T23:21:03.604Z,12.21
2022-10-21T23:24:05.542Z,12.16
2022-10-21T23:27:07.093Z,12.12
2022-10-21T23:30:08.862Z,12.09
2022-10-21T23:33:10.444Z,12.01
2022-10-21T23:36:12.078Z,12.03
2022-10-21T23:39:13.624Z,12.06
2022-10-21T23:42:15.143Z,12.08
2022-10-21T23:45:16.691Z,12.15
2022-10-21T23:48:18.194Z,12.14
2022-10-21T23:51:19.974Z,12.17
2022-10-21T23:54:21.547Z,12.19
2022-10-21T23:57:23.125Z,12.20
